sensor_id;sensor_type;location;lat;lon;timestamp;P1;durP1;ratioP1;P2;durP2;ratioP2
53309;SDS011;39197;53.200;5.792;2022-08-11T00:03:58;7.68;;;6.93;;
53309;SDS011;39197;53.200;5.792;2022-08-11T00:06:28;6.78;;;6.10;;
53309;SDS011;39197;53.200;5.792;2022-08-11T00:08:55;8.90;;;7.03;;
53309;SDS011;39197;53.200;5.792;2022-08-11T00:11:31;7.53;;;6.80;;
53309;SDS011;39197;53.200;5.792;2022-08-11T00:13:59;8.88;;;6.30;;
53309;SDS011;39197;53.200;5.792;2022-08-11T00:16:26;7.00;;;6.25;;
53309;SDS011;39197;53.200;5.792;2022-08-11T00:18:56;8.20;;;6.15;;
53309;SDS011;39197;53.200;5.792;2022-08-11T00:21:23;6.28;;;5.68;;
53309;SDS011;39197;53.200;5.792;2022-08-11T00:23:56;8.55;;;6.60;;
53309;SDS011;39197;53.200;5.792;2022-08-11T00:26:23;7.93;;;7.10;;
53309;SDS011;39197;53.200;5.792;2022-08-11T00:28:50;8.77;;;7.15;;
53309;SDS011;39197;53.200;5.792;2022-08-11T00:31:22;9.73;;;6.90;;
53309;SDS011;39197;53.200;5.792;2022-08-11T00:33:50;6.45;;;5.28;;
53309;SDS011;39197;53.200;5.792;2022-08-11T00:36:18;9.02;;;6.03;;
53309;SDS011;39197;53.200;5.792;2022-08-11T00:38:48;12.57;;;6.70;;
53309;SDS011;39197;53.200;5.792;2022-08-11T00:44:19;7.97;;;6.20;;
53309;SDS011;39197;53.200;5.792;2022-08-11T00:49:57;8.32;;;5.90;;
53309;SDS011;39197;53.200;5.792;2022-08-11T00:52:35;9.05;;;6.97;;
53309;SDS011;39197;53.200;5.792;2022-08-11T01:09:34;9.77;;;7.88;;
53309;SDS011;39197;53.200;5.792;2022-08-11T01:15:23;9.80;;;6.75;;
53309;SDS011;39197;53.200;5.792;2022-08-11T01:18:28;7.57;;;6.60;;
53309;SDS011;39197;53.200;5.792;2022-08-11T01:24:36;6.53;;;5.72;;
53309;SDS011;39197;53.200;5.792;2022-08-11T01:30:09;9.63;;;6.82;;
53309;SDS011;39197;53.200;5.792;2022-08-11T01:42:04;8.43;;;6.63;;
53309;SDS011;39197;53.200;5.792;2022-08-11T01:45:03;7.65;;;6.53;;
53309;SDS011;39197;53.200;5.792;2022-08-11T01:47:37;9.30;;;6.72;;
53309;SDS011;39197;53.200;5.792;2022-08-11T01:58:47;8.57;;;5.97;;
53309;SDS011;39197;53.200;5.792;2022-08-11T02:04:55;10.48;;;7.97;;
53309;SDS011;39197;53.200;5.792;2022-08-11T02:10:15;9.48;;;6.13;;
53309;SDS011;39197;53.200;5.792;2022-08-11T02:13:56;6.68;;;5.97;;
53309;SDS011;39197;53.200;5.792;2022-08-11T02:18:35;6.78;;;6.00;;
53309;SDS011;39197;53.200;5.792;2022-08-11T02:21:26;8.43;;;6.57;;
53309;SDS011;39197;53.200;5.792;2022-08-11T02:24:22;7.75;;;6.97;;
53309;SDS011;39197;53.200;5.792;2022-08-11T02:26:59;8.00;;;6.25;;
53309;SDS011;39197;53.200;5.792;2022-08-11T02:29:40;9.30;;;6.63;;
53309;SDS011;39197;53.200;5.792;2022-08-11T02:43:43;8.45;;;6.93;;
53309;SDS011;39197;53.200;5.792;2022-08-11T02:49:34;10.05;;;7.72;;
53309;SDS011;39197;53.200;5.792;2022-08-11T02:58:21;11.45;;;6.60;;
53309;SDS011;39197;53.200;5.792;2022-08-11T03:01:08;12.88;;;7.65;;
53309;SDS011;39197;53.200;5.792;2022-08-11T03:04:24;10.88;;;7.65;;
53309;SDS011;39197;53.200;5.792;2022-08-11T03:06:38;13.23;;;7.43;;
53309;SDS011;39197;53.200;5.792;2022-08-11T03:09:24;10.30;;;7.85;;
53309;SDS011;39197;53.200;5.792;2022-08-11T03:12:10;8.57;;;6.95;;
53309;SDS011;39197;53.200;5.792;2022-08-11T03:15:02;8.68;;;6.40;;
53309;SDS011;39197;53.200;5.792;2022-08-11T03:18:03;12.00;;;7.95;;
53309;SDS011;39197;53.200;5.792;2022-08-11T03:21:08;8.52;;;7.05;;
53309;SDS011;39197;53.200;5.792;2022-08-11T03:23:46;10.27;;;7.63;;
53309;SDS011;39197;53.200;5.792;2022-08-11T03:26:27;11.05;;;7.78;;
53309;SDS011;39197;53.200;5.792;2022-08-11T03:29:15;8.30;;;7.30;;
53309;SDS011;39197;53.200;5.792;2022-08-11T03:31:58;10.55;;;8.60;;
53309;SDS011;39197;53.200;5.792;2022-08-11T03:34:30;11.43;;;7.35;;
53309;SDS011;39197;53.200;5.792;2022-08-11T03:37:10;11.18;;;8.30;;
53309;SDS011;39197;53.200;5.792;2022-08-11T03:43:06;9.13;;;8.18;;
53309;SDS011;39197;53.200;5.792;2022-08-11T03:45:43;11.45;;;7.53;;
53309;SDS011;39197;53.200;5.792;2022-08-11T03:54:02;8.65;;;7.75;;
53309;SDS011;39197;53.200;5.792;2022-08-11T03:56:58;10.38;;;9.27;;
53309;SDS011;39197;53.200;5.792;2022-08-11T04:13:34;11.15;;;8.93;;
53309;SDS011;39197;53.200;5.792;2022-08-11T04:38:29;12.32;;;10.45;;
53309;SDS011;39197;53.200;5.792;2022-08-11T04:43:45;13.90;;;9.27;;
53309;SDS011;39197;53.200;5.792;2022-08-11T04:49:41;12.52;;;10.73;;
53309;SDS011;39197;53.200;5.792;2022-08-11T04:52:55;12.02;;;9.93;;
53309;SDS011;39197;53.200;5.792;2022-08-11T04:56:15;11.55;;;9.07;;
53309;SDS011;39197;53.200;5.792;2022-08-11T05:00:05;13.27;;;10.02;;
53309;SDS011;39197;53.200;5.792;2022-08-11T05:14:31;12.25;;;9.05;;
53309;SDS011;39197;53.200;5.792;2022-08-11T05:17:38;10.27;;;8.25;;
53309;SDS011;39197;53.200;5.792;2022-08-11T05:20:26;9.40;;;8.38;;
53309;SDS011;39197;53.200;5.792;2022-08-11T05:23:11;10.90;;;8.25;;
53309;SDS011;39197;53.200;5.792;2022-08-11T05:25:58;13.23;;;8.45;;
53309;SDS011;39197;53.200;5.792;2022-08-11T05:31:42;10.90;;;8.30;;
53309;SDS011;39197;53.200;5.792;2022-08-11T05:34:47;10.98;;;8.73;;
53309;SDS011;39197;53.200;5.792;2022-08-11T05:39:59;12.52;;;8.52;;
53309;SDS011;39197;53.200;5.792;2022-08-11T05:42:56;9.50;;;8.45;;
53309;SDS011;39197;53.200;5.792;2022-08-11T05:45:42;14.18;;;8.52;;
53309;SDS011;39197;53.200;5.792;2022-08-11T05:48:38;9.30;;;7.70;;
53309;SDS011;39197;53.200;5.792;2022-08-11T05:51:32;8.98;;;8.07;;
53309;SDS011;39197;53.200;5.792;2022-08-11T05:54:17;11.27;;;8.23;;
53309;SDS011;39197;53.200;5.792;2022-08-11T05:57:03;14.02;;;9.68;;
53309;SDS011;39197;53.200;5.792;2022-08-11T05:59:29;12.05;;;10.02;;
53309;SDS011;39197;53.200;5.792;2022-08-11T06:02:00;12.18;;;9.60;;
53309;SDS011;39197;53.200;5.792;2022-08-11T06:04:28;13.70;;;10.00;;
53309;SDS011;39197;53.200;5.792;2022-08-11T06:06:58;14.85;;;9.88;;
53309;SDS011;39197;53.200;5.792;2022-08-11T06:11:59;9.57;;;8.73;;
53309;SDS011;39197;53.200;5.792;2022-08-11T06:14:30;10.65;;;8.00;;
53309;SDS011;39197;53.200;5.792;2022-08-11T06:16:58;13.25;;;7.00;;
53309;SDS011;39197;53.200;5.792;2022-08-11T06:19:30;10.88;;;6.75;;
53309;SDS011;39197;53.200;5.792;2022-08-11T06:21:58;8.80;;;6.40;;
53309;SDS011;39197;53.200;5.792;2022-08-11T06:24:26;10.43;;;6.60;;
53309;SDS011;39197;53.200;5.792;2022-08-11T06:26:53;8.82;;;5.25;;
53309;SDS011;39197;53.200;5.792;2022-08-11T06:29:20;9.57;;;6.53;;
53309;SDS011;39197;53.200;5.792;2022-08-11T06:31:57;9.63;;;7.25;;
53309;SDS011;39197;53.200;5.792;2022-08-11T06:42:37;12.38;;;5.43;;
53309;SDS011;39197;53.200;5.792;2022-08-11T06:45:25;8.93;;;5.38;;
53309;SDS011;39197;53.200;5.792;2022-08-11T06:47:51;9.32;;;6.85;;
53309;SDS011;39197;53.200;5.792;2022-08-11T06:50:18;5.95;;;5.35;;
53309;SDS011;39197;53.200;5.792;2022-08-11T06:53:05;9.82;;;6.28;;
53309;SDS011;39197;53.200;5.792;2022-08-11T06:55:33;8.93;;;5.35;;
53309;SDS011;39197;53.200;5.792;2022-08-11T06:58:21;7.03;;;5.38;;
53309;SDS011;39197;53.200;5.792;2022-08-11T07:01:12;8.98;;;5.85;;
53309;SDS011;39197;53.200;5.792;2022-08-11T07:03:44;9.35;;;5.40;;
53309;SDS011;39197;53.200;5.792;2022-08-11T07:12:08;5.80;;;3.90;;
53309;SDS011;39197;53.200;5.792;2022-08-11T07:15:05;6.55;;;3.53;;
53309;SDS011;39197;53.200;5.792;2022-08-11T07:17:55;5.38;;;4.53;;
53309;SDS011;39197;53.200;5.792;2022-08-11T07:20:41;7.38;;;3.28;;
53309;SDS011;39197;53.200;5.792;2022-08-11T07:23:27;4.80;;;2.72;;
53309;SDS011;39197;53.200;5.792;2022-08-11T07:26:16;4.30;;;3.25;;
53309;SDS011;39197;53.200;5.792;2022-08-11T07:29:04;5.07;;;3.00;;
53309;SDS011;39197;53.200;5.792;2022-08-11T07:31:51;6.75;;;3.35;;
53309;SDS011;39197;53.200;5.792;2022-08-11T07:36:52;5.10;;;2.80;;
53309;SDS011;39197;53.200;5.792;2022-08-11T07:39:21;4.47;;;2.67;;
53309;SDS011;39197;53.200;5.792;2022-08-11T07:41:50;4.15;;;2.78;;
53309;SDS011;39197;53.200;5.792;2022-08-11T07:44:16;6.07;;;2.50;;
53309;SDS011;39197;53.200;5.792;2022-08-11T07:46:43;7.10;;;2.50;;
53309;SDS011;39197;53.200;5.792;2022-08-11T07:49:30;4.80;;;2.10;;
53309;SDS011;39197;53.200;5.792;2022-08-11T07:52:18;4.47;;;2.25;;
53309;SDS011;39197;53.200;5.792;2022-08-11T07:55:04;4.32;;;2.25;;
53309;SDS011;39197;53.200;5.792;2022-08-11T07:57:32;5.22;;;3.00;;
53309;SDS011;39197;53.200;5.792;2022-08-11T08:00:18;4.03;;;2.75;;
53309;SDS011;39197;53.200;5.792;2022-08-11T08:03:05;5.75;;;3.97;;
53309;SDS011;39197;53.200;5.792;2022-08-11T08:05:50;5.50;;;2.45;;
53309;SDS011;39197;53.200;5.792;2022-08-11T08:08:35;4.97;;;2.05;;
53309;SDS011;39197;53.200;5.792;2022-08-11T08:11:22;8.45;;;3.20;;
53309;SDS011;39197;53.200;5.792;2022-08-11T08:14:08;4.45;;;2.25;;
53309;SDS011;39197;53.200;5.792;2022-08-11T08:16:53;3.75;;;1.40;;
53309;SDS011;39197;53.200;5.792;2022-08-11T08:19:41;4.50;;;2.72;;
53309;SDS011;39197;53.200;5.792;2022-08-11T08:22:12;8.68;;;2.13;;
53309;SDS011;39197;53.200;5.792;2022-08-11T08:24:41;4.25;;;1.30;;
53309;SDS011;39197;53.200;5.792;2022-08-11T08:27:08;4.90;;;1.63;;
53309;SDS011;39197;53.200;5.792;2022-08-11T08:29:36;4.85;;;1.80;;
53309;SDS011;39197;53.200;5.792;2022-08-11T08:32:21;2.50;;;1.02;;
53309;SDS011;39197;53.200;5.792;2022-08-11T08:34:50;4.25;;;1.52;;
53309;SDS011;39197;53.200;5.792;2022-08-11T08:37:18;3.83;;;1.17;;
53309;SDS011;39197;53.200;5.792;2022-08-11T08:39:46;4.15;;;1.05;;
53309;SDS011;39197;53.200;5.792;2022-08-11T08:42:12;2.25;;;1.02;;
53309;SDS011;39197;53.200;5.792;2022-08-11T08:44:44;2.42;;;1.60;;
53309;SDS011;39197;53.200;5.792;2022-08-11T08:47:14;3.65;;;2.33;;
53309;SDS011;39197;53.200;5.792;2022-08-11T08:49:47;3.40;;;2.03;;
53309;SDS011;39197;53.200;5.792;2022-08-11T08:52:17;3.60;;;1.48;;
53309;SDS011;39197;53.200;5.792;2022-08-11T08:54:47;2.88;;;2.00;;
53309;SDS011;39197;53.200;5.792;2022-08-11T08:57:18;4.30;;;2.03;;
53309;SDS011;39197;53.200;5.792;2022-08-11T08:59:47;5.82;;;1.58;;
53309;SDS011;39197;53.200;5.792;2022-08-11T09:02:15;5.60;;;2.15;;
53309;SDS011;39197;53.200;5.792;2022-08-11T09:04:43;6.10;;;1.55;;
53309;SDS011;39197;53.200;5.792;2022-08-11T09:07:11;4.63;;;1.10;;
53309;SDS011;39197;53.200;5.792;2022-08-11T09:09:49;4.20;;;1.38;;
53309;SDS011;39197;53.200;5.792;2022-08-11T09:12:20;6.47;;;2.17;;
53309;SDS011;39197;53.200;5.792;2022-08-11T09:14:49;4.80;;;1.88;;
53309;SDS011;39197;53.200;5.792;2022-08-11T09:17:28;3.53;;;1.15;;
53309;SDS011;39197;53.200;5.792;2022-08-11T09:20:02;5.28;;;1.05;;
53309;SDS011;39197;53.200;5.792;2022-08-11T09:22:30;4.18;;;1.70;;
53309;SDS011;39197;53.200;5.792;2022-08-11T09:25:16;3.45;;;1.80;;
53309;SDS011;39197;53.200;5.792;2022-08-11T09:28:02;2.47;;;0.93;;
53309;SDS011;39197;53.200;5.792;2022-08-11T09:30:29;4.30;;;1.38;;
53309;SDS011;39197;53.200;5.792;2022-08-11T09:32:57;2.28;;;0.77;;
53309;SDS011;39197;53.200;5.792;2022-08-11T09:35:26;4.93;;;0.90;;
53309;SDS011;39197;53.200;5.792;2022-08-11T09:37:53;2.10;;;0.70;;
53309;SDS011;39197;53.200;5.792;2022-08-11T09:40:52;5.18;;;1.17;;
53309;SDS011;39197;53.200;5.792;2022-08-11T09:43:18;4.32;;;0.80;;
53309;SDS011;39197;53.200;5.792;2022-08-11T09:46:03;5.32;;;1.10;;
53309;SDS011;39197;53.200;5.792;2022-08-11T09:48:34;4.28;;;1.02;;
53309;SDS011;39197;53.200;5.792;2022-08-11T09:51:01;4.50;;;0.93;;
53309;SDS011;39197;53.200;5.792;2022-08-11T09:53:34;3.17;;;1.15;;
53309;SDS011;39197;53.200;5.792;2022-08-11T09:56:01;2.88;;;0.75;;
53309;SDS011;39197;53.200;5.792;2022-08-11T09:58:51;4.45;;;0.75;;
53309;SDS011;39197;53.200;5.792;2022-08-11T10:01:19;4.22;;;1.20;;
53309;SDS011;39197;53.200;5.792;2022-08-11T10:03:57;2.38;;;0.95;;
53309;SDS011;39197;53.200;5.792;2022-08-11T10:06:36;5.55;;;0.90;;
53309;SDS011;39197;53.200;5.792;2022-08-11T10:09:23;3.67;;;0.80;;
53309;SDS011;39197;53.200;5.792;2022-08-11T10:11:50;4.80;;;0.80;;
53309;SDS011;39197;53.200;5.792;2022-08-11T10:14:20;5.78;;;1.13;;
53309;SDS011;39197;53.200;5.792;2022-08-11T10:17:07;3.17;;;0.60;;
53309;SDS011;39197;53.200;5.792;2022-08-11T10:19:34;4.35;;;0.98;;
53309;SDS011;39197;53.200;5.792;2022-08-11T10:22:02;2.70;;;1.23;;
53309;SDS011;39197;53.200;5.792;2022-08-11T10:24:48;5.85;;;0.80;;
53309;SDS011;39197;53.200;5.792;2022-08-11T10:27:34;2.30;;;0.80;;
53309;SDS011;39197;53.200;5.792;2022-08-11T10:29:59;2.65;;;0.98;;
53309;SDS011;39197;53.200;5.792;2022-08-11T10:32:44;2.10;;;1.30;;
53309;SDS011;39197;53.200;5.792;2022-08-11T10:35:32;3.20;;;0.80;;
53309;SDS011;39197;53.200;5.792;2022-08-11T10:37:58;2.95;;;0.85;;
53309;SDS011;39197;53.200;5.792;2022-08-11T10:40:25;2.08;;;0.88;;
53309;SDS011;39197;53.200;5.792;2022-08-11T10:42:56;6.03;;;1.20;;
53309;SDS011;39197;53.200;5.792;2022-08-11T10:45:36;5.00;;;1.35;;
53309;SDS011;39197;53.200;5.792;2022-08-11T10:48:27;2.25;;;0.95;;
53309;SDS011;39197;53.200;5.792;2022-08-11T10:50:55;2.45;;;0.95;;
53309;SDS011;39197;53.200;5.792;2022-08-11T10:53:38;2.63;;;1.10;;
53309;SDS011;39197;53.200;5.792;2022-08-11T10:56:28;3.85;;;1.10;;
53309;SDS011;39197;53.200;5.792;2022-08-11T10:59:15;3.95;;;0.93;;
53309;SDS011;39197;53.200;5.792;2022-08-11T11:01:41;5.28;;;1.25;;
53309;SDS011;39197;53.200;5.792;2022-08-11T11:06:48;4.22;;;1.17;;
53309;SDS011;39197;53.200;5.792;2022-08-11T11:09:36;5.03;;;1.50;;
53309;SDS011;39197;53.200;5.792;2022-08-11T11:12:08;10.23;;;2.92;;
53309;SDS011;39197;53.200;5.792;2022-08-11T11:14:56;4.65;;;0.90;;
53309;SDS011;39197;53.200;5.792;2022-08-11T11:17:42;2.05;;;0.73;;
53309;SDS011;39197;53.200;5.792;2022-08-11T11:20:24;1.92;;;0.70;;
53309;SDS011;39197;53.200;5.792;2022-08-11T11:22:53;4.00;;;1.58;;
53309;SDS011;39197;53.200;5.792;2022-08-11T11:31:16;2.45;;;0.80;;
53309;SDS011;39197;53.200;5.792;2022-08-11T11:36:15;4.18;;;1.15;;
53309;SDS011;39197;53.200;5.792;2022-08-11T11:39:00;4.88;;;1.48;;
53309;SDS011;39197;53.200;5.792;2022-08-11T11:41:27;4.10;;;0.93;;
53309;SDS011;39197;53.200;5.792;2022-08-11T11:43:54;2.80;;;0.70;;
53309;SDS011;39197;53.200;5.792;2022-08-11T11:46:23;3.70;;;0.80;;
53309;SDS011;39197;53.200;5.792;2022-08-11T11:48:53;3.08;;;0.93;;
53309;SDS011;39197;53.200;5.792;2022-08-11T11:51:20;1.95;;;0.80;;
53309;SDS011;39197;53.200;5.792;2022-08-11T11:53:47;2.35;;;0.82;;
53309;SDS011;39197;53.200;5.792;2022-08-11T11:56:14;3.72;;;1.00;;
53309;SDS011;39197;53.200;5.792;2022-08-11T11:58:40;2.03;;;1.13;;
53309;SDS011;39197;53.200;5.792;2022-08-11T12:01:25;3.97;;;0.60;;
53309;SDS011;39197;53.200;5.792;2022-08-11T12:03:52;5.50;;;1.23;;
53309;SDS011;39197;53.200;5.792;2022-08-11T12:06:20;4.20;;;0.73;;
53309;SDS011;39197;53.200;5.792;2022-08-11T12:08:47;2.67;;;0.70;;
53309;SDS011;39197;53.200;5.792;2022-08-11T12:11:14;2.05;;;0.80;;
53309;SDS011;39197;53.200;5.792;2022-08-11T12:14:01;2.47;;;0.75;;
53309;SDS011;39197;53.200;5.792;2022-08-11T12:16:28;2.92;;;0.93;;
53309;SDS011;39197;53.200;5.792;2022-08-11T12:18:56;2.38;;;0.82;;
53309;SDS011;39197;53.200;5.792;2022-08-11T12:21:24;3.67;;;0.70;;
53309;SDS011;39197;53.200;5.792;2022-08-11T12:23:51;3.92;;;0.80;;
53309;SDS011;39197;53.200;5.792;2022-08-11T12:26:38;4.60;;;0.77;;
53309;SDS011;39197;53.200;5.792;2022-08-11T12:29:14;2.60;;;0.57;;
53309;SDS011;39197;53.200;5.792;2022-08-11T12:31:43;4.43;;;0.67;;
53309;SDS011;39197;53.200;5.792;2022-08-11T12:34:10;2.97;;;1.02;;
53309;SDS011;39197;53.200;5.792;2022-08-11T12:36:39;4.85;;;1.20;;
53309;SDS011;39197;53.200;5.792;2022-08-11T12:39:11;2.17;;;0.82;;
53309;SDS011;39197;53.200;5.792;2022-08-11T12:41:43;3.75;;;1.33;;
53309;SDS011;39197;53.200;5.792;2022-08-11T12:44:28;2.45;;;0.80;;
53309;SDS011;39197;53.200;5.792;2022-08-11T12:47:15;2.03;;;0.50;;
53309;SDS011;39197;53.200;5.792;2022-08-11T12:49:43;3.80;;;0.90;;
53309;SDS011;39197;53.200;5.792;2022-08-11T12:52:34;2.47;;;0.50;;
53309;SDS011;39197;53.200;5.792;2022-08-11T12:55:15;3.47;;;0.60;;
53309;SDS011;39197;53.200;5.792;2022-08-11T12:58:03;2.72;;;0.80;;
53309;SDS011;39197;53.200;5.792;2022-08-11T13:00:41;3.47;;;1.20;;
53309;SDS011;39197;53.200;5.792;2022-08-11T13:03:27;2.28;;;0.73;;
53309;SDS011;39197;53.200;5.792;2022-08-11T13:06:12;2.45;;;0.70;;
53309;SDS011;39197;53.200;5.792;2022-08-11T13:08:39;1.90;;;0.90;;
53309;SDS011;39197;53.200;5.792;2022-08-11T13:11:06;0.73;;;0.40;;
53309;SDS011;39197;53.200;5.792;2022-08-11T13:13:51;2.88;;;0.75;;
53309;SDS011;39197;53.200;5.792;2022-08-11T13:16:21;5.85;;;1.63;;
53309;SDS011;39197;53.200;5.792;2022-08-11T13:19:27;3.05;;;1.00;;
53309;SDS011;39197;53.200;5.792;2022-08-11T13:21:54;2.17;;;0.85;;
53309;SDS011;39197;53.200;5.792;2022-08-11T13:24:22;4.22;;;1.25;;
53309;SDS011;39197;53.200;5.792;2022-08-11T13:26:49;4.88;;;0.82;;
53309;SDS011;39197;53.200;5.792;2022-08-11T13:29:25;6.97;;;1.15;;
53309;SDS011;39197;53.200;5.792;2022-08-11T13:31:53;6.78;;;2.03;;
53309;SDS011;39197;53.200;5.792;2022-08-11T13:34:23;2.53;;;0.73;;
53309;SDS011;39197;53.200;5.792;2022-08-11T13:36:51;7.95;;;1.45;;
53309;SDS011;39197;53.200;5.792;2022-08-11T13:39:24;4.35;;;0.80;;
53309;SDS011;39197;53.200;5.792;2022-08-11T13:41:55;8.07;;;1.50;;
53309;SDS011;39197;53.200;5.792;2022-08-11T13:44:23;6.45;;;1.13;;
53309;SDS011;39197;53.200;5.792;2022-08-11T13:46:57;3.78;;;0.80;;
53309;SDS011;39197;53.200;5.792;2022-08-11T13:49:28;5.32;;;4.70;;
53309;SDS011;39197;53.200;5.792;2022-08-11T13:51:55;2.55;;;1.02;;
53309;SDS011;39197;53.200;5.792;2022-08-11T13:54:26;6.00;;;1.00;;
53309;SDS011;39197;53.200;5.792;2022-08-11T13:56:55;4.53;;;1.23;;
53309;SDS011;39197;53.200;5.792;2022-08-11T13:59:24;4.72;;;0.82;;
53309;SDS011;39197;53.200;5.792;2022-08-11T14:01:52;3.60;;;1.00;;
53309;SDS011;39197;53.200;5.792;2022-08-11T14:07:05;3.55;;;0.95;;
53309;SDS011;39197;53.200;5.792;2022-08-11T14:09:36;2.38;;;1.60;;
53309;SDS011;39197;53.200;5.792;2022-08-11T14:12:08;4.00;;;1.40;;
53309;SDS011;39197;53.200;5.792;2022-08-11T14:14:58;2.17;;;0.77;;
53309;SDS011;39197;53.200;5.792;2022-08-11T14:17:30;6.55;;;0.90;;
53309;SDS011;39197;53.200;5.792;2022-08-11T14:20:00;4.38;;;1.10;;
53309;SDS011;39197;53.200;5.792;2022-08-11T14:22:30;6.68;;;2.95;;
53309;SDS011;39197;53.200;5.792;2022-08-11T14:24:57;3.30;;;0.85;;
53309;SDS011;39197;53.200;5.792;2022-08-11T14:27:23;4.70;;;1.00;;
53309;SDS011;39197;53.200;5.792;2022-08-11T14:29:55;4.07;;;1.10;;
53309;SDS011;39197;53.200;5.792;2022-08-11T14:32:22;7.75;;;2.42;;
53309;SDS011;39197;53.200;5.792;2022-08-11T14:34:48;6.97;;;2.72;;
53309;SDS011;39197;53.200;5.792;2022-08-11T14:37:17;4.18;;;0.60;;
53309;SDS011;39197;53.200;5.792;2022-08-11T14:39:51;6.30;;;1.02;;
53309;SDS011;39197;53.200;5.792;2022-08-11T14:42:20;4.38;;;0.90;;
53309;SDS011;39197;53.200;5.792;2022-08-11T14:45:08;3.22;;;0.80;;
53309;SDS011;39197;53.200;5.792;2022-08-11T14:48:01;2.90;;;0.77;;
53309;SDS011;39197;53.200;5.792;2022-08-11T14:50:30;4.07;;;1.00;;
53309;SDS011;39197;53.200;5.792;2022-08-11T14:52:58;3.20;;;0.95;;
53309;SDS011;39197;53.200;5.792;2022-08-11T14:55:27;3.55;;;0.80;;
53309;SDS011;39197;53.200;5.792;2022-08-11T14:58:18;2.10;;;0.60;;
53309;SDS011;39197;53.200;5.792;2022-08-11T15:00:49;2.22;;;0.60;;
53309;SDS011;39197;53.200;5.792;2022-08-11T15:03:21;1.92;;;0.90;;
53309;SDS011;39197;53.200;5.792;2022-08-11T15:05:49;4.95;;;1.35;;
53309;SDS011;39197;53.200;5.792;2022-08-11T15:08:17;4.43;;;1.50;;
53309;SDS011;39197;53.200;5.792;2022-08-11T15:10:44;3.85;;;0.93;;
53309;SDS011;39197;53.200;5.792;2022-08-11T15:13:14;2.40;;;0.60;;
53309;SDS011;39197;53.200;5.792;2022-08-11T15:15:42;4.47;;;0.88;;
53309;SDS011;39197;53.200;5.792;2022-08-11T15:18:27;4.40;;;0.90;;
53309;SDS011;39197;53.200;5.792;2022-08-11T15:20:55;6.97;;;1.00;;
53309;SDS011;39197;53.200;5.792;2022-08-11T15:23:39;4.90;;;1.63;;
53309;SDS011;39197;53.200;5.792;2022-08-11T15:26:29;3.05;;;1.00;;
53309;SDS011;39197;53.200;5.792;2022-08-11T15:29:22;5.00;;;1.75;;
53309;SDS011;39197;53.200;5.792;2022-08-11T15:32:10;3.08;;;1.30;;
53309;SDS011;39197;53.200;5.792;2022-08-11T15:34:48;6.13;;;1.77;;
53309;SDS011;39197;53.200;5.792;2022-08-11T15:37:39;5.10;;;0.70;;
53309;SDS011;39197;53.200;5.792;2022-08-11T15:40:09;3.22;;;1.25;;
53309;SDS011;39197;53.200;5.792;2022-08-11T15:46:02;3.00;;;0.68;;
53309;SDS011;39197;53.200;5.792;2022-08-11T15:48:38;2.13;;;0.80;;
53309;SDS011;39197;53.200;5.792;2022-08-11T15:51:11;3.15;;;1.10;;
53309;SDS011;39197;53.200;5.792;2022-08-11T15:53:46;4.60;;;1.40;;
53309;SDS011;39197;53.200;5.792;2022-08-11T15:56:16;4.47;;;0.88;;
53309;SDS011;39197;53.200;5.792;2022-08-11T15:58:45;4.43;;;1.10;;
53309;SDS011;39197;53.200;5.792;2022-08-11T16:01:30;3.42;;;0.85;;
53309;SDS011;39197;53.200;5.792;2022-08-11T16:04:24;2.65;;;1.42;;
53309;SDS011;39197;53.200;5.792;2022-08-11T16:09:39;4.82;;;0.90;;
53309;SDS011;39197;53.200;5.792;2022-08-11T16:12:10;3.53;;;0.80;;
53309;SDS011;39197;53.200;5.792;2022-08-11T16:14:43;7.32;;;1.05;;
53309;SDS011;39197;53.200;5.792;2022-08-11T16:17:30;4.77;;;0.70;;
53309;SDS011;39197;53.200;5.792;2022-08-11T16:20:01;3.28;;;1.05;;
53309;SDS011;39197;53.200;5.792;2022-08-11T16:22:28;4.35;;;1.60;;
53309;SDS011;39197;53.200;5.792;2022-08-11T16:25:04;2.60;;;1.35;;
53309;SDS011;39197;53.200;5.792;2022-08-11T16:27:34;3.80;;;2.40;;
53309;SDS011;39197;53.200;5.792;2022-08-11T16:30:02;4.83;;;2.07;;
53309;SDS011;39197;53.200;5.792;2022-08-11T16:32:33;1.65;;;0.40;;
53309;SDS011;39197;53.200;5.792;2022-08-11T16:35:01;4.13;;;1.88;;
53309;SDS011;39197;53.200;5.792;2022-08-11T16:37:51;6.85;;;1.13;;
53309;SDS011;39197;53.200;5.792;2022-08-11T16:40:36;2.97;;;1.20;;
53309;SDS011;39197;53.200;5.792;2022-08-11T16:43:04;3.60;;;2.40;;
53309;SDS011;39197;53.200;5.792;2022-08-11T16:45:51;8.77;;;1.25;;
53309;SDS011;39197;53.200;5.792;2022-08-11T16:48:37;3.60;;;0.80;;
53309;SDS011;39197;53.200;5.792;2022-08-11T16:51:06;4.10;;;1.38;;
53309;SDS011;39197;53.200;5.792;2022-08-11T16:53:34;2.15;;;0.90;;
53309;SDS011;39197;53.200;5.792;2022-08-11T16:56:02;7.03;;;1.88;;
53309;SDS011;39197;53.200;5.792;2022-08-11T16:58:30;3.05;;;1.85;;
53309;SDS011;39197;53.200;5.792;2022-08-11T17:01:18;4.32;;;2.03;;
53309;SDS011;39197;53.200;5.792;2022-08-11T17:03:46;5.53;;;1.00;;
53309;SDS011;39197;53.200;5.792;2022-08-11T17:06:37;2.58;;;1.05;;
53309;SDS011;39197;53.200;5.792;2022-08-11T17:09:24;5.07;;;1.23;;
53309;SDS011;39197;53.200;5.792;2022-08-11T17:12:10;3.75;;;2.08;;
53309;SDS011;39197;53.200;5.792;2022-08-11T17:14:57;3.70;;;2.65;;
53309;SDS011;39197;53.200;5.792;2022-08-11T17:17:31;4.70;;;1.80;;
53309;SDS011;39197;53.200;5.792;2022-08-11T17:20:00;5.65;;;3.50;;
53309;SDS011;39197;53.200;5.792;2022-08-11T17:22:31;6.05;;;2.42;;
53309;SDS011;39197;53.200;5.792;2022-08-11T17:25:17;6.72;;;1.55;;
53309;SDS011;39197;53.200;5.792;2022-08-11T17:27:44;4.45;;;3.60;;
53309;SDS011;39197;53.200;5.792;2022-08-11T17:30:12;6.28;;;3.75;;
53309;SDS011;39197;53.200;5.792;2022-08-11T17:32:42;7.47;;;4.20;;
53309;SDS011;39197;53.200;5.792;2022-08-11T17:35:35;3.05;;;0.93;;
53309;SDS011;39197;53.200;5.792;2022-08-11T17:38:16;2.88;;;1.00;;
53309;SDS011;39197;53.200;5.792;2022-08-11T17:40:53;3.50;;;1.90;;
53309;SDS011;39197;53.200;5.792;2022-08-11T17:43:40;3.47;;;2.35;;
53309;SDS011;39197;53.200;5.792;2022-08-11T17:46:30;3.88;;;1.85;;
53309;SDS011;39197;53.200;5.792;2022-08-11T17:49:15;6.90;;;2.03;;
53309;SDS011;39197;53.200;5.792;2022-08-11T17:51:44;3.20;;;1.40;;
53309;SDS011;39197;53.200;5.792;2022-08-11T17:54:31;4.03;;;1.20;;
53309;SDS011;39197;53.200;5.792;2022-08-11T17:57:17;3.03;;;1.00;;
53309;SDS011;39197;53.200;5.792;2022-08-11T18:00:03;8.65;;;2.67;;
53309;SDS011;39197;53.200;5.792;2022-08-11T18:02:35;6.93;;;0.90;;
53309;SDS011;39197;53.200;5.792;2022-08-11T18:05:29;3.92;;;1.27;;
53309;SDS011;39197;53.200;5.792;2022-08-11T18:07:58;6.30;;;2.25;;
53309;SDS011;39197;53.200;5.792;2022-08-11T18:10:44;4.43;;;1.67;;
53309;SDS011;39197;53.200;5.792;2022-08-11T18:13:30;2.78;;;1.40;;
53309;SDS011;39197;53.200;5.792;2022-08-11T18:16:17;3.45;;;1.85;;
53309;SDS011;39197;53.200;5.792;2022-08-11T18:19:02;3.67;;;1.60;;
53309;SDS011;39197;53.200;5.792;2022-08-11T18:21:48;4.13;;;2.17;;
53309;SDS011;39197;53.200;5.792;2022-08-11T18:24:37;3.50;;;1.27;;
53309;SDS011;39197;53.200;5.792;2022-08-11T18:27:27;4.72;;;1.52;;
53309;SDS011;39197;53.200;5.792;2022-08-11T18:30:13;5.70;;;2.58;;
53309;SDS011;39197;53.200;5.792;2022-08-11T18:32:59;6.40;;;1.20;;
53309;SDS011;39197;53.200;5.792;2022-08-11T18:35:47;3.95;;;1.33;;
53309;SDS011;39197;53.200;5.792;2022-08-11T18:38:36;6.70;;;2.78;;
53309;SDS011;39197;53.200;5.792;2022-08-11T18:41:24;10.70;;;3.50;;
53309;SDS011;39197;53.200;5.792;2022-08-11T18:44:12;5.70;;;3.65;;
53309;SDS011;39197;53.200;5.792;2022-08-11T18:47:00;6.85;;;4.20;;
53309;SDS011;39197;53.200;5.792;2022-08-11T18:49:48;6.05;;;2.03;;
53309;SDS011;39197;53.200;5.792;2022-08-11T18:52:35;5.55;;;2.63;;
53309;SDS011;39197;53.200;5.792;2022-08-11T18:55:22;7.93;;;6.93;;